Disclaimer

Please do not use the information listed here in-flight or in-navigation, as they are not provided to us by the airports but are provided by volunteers, so they might be outdated.

Search


Regions


Airport information page

Radio informations:
SALINAS TWR - 122.4 MHz
SALINAS RDO - 126.9 MHz
SALINAS APP - 124.1 MHz
GUAYAQUIL CNTL - 128.3 MHz

Airport informations:
Latitude: 02° 12' 17.98" S
Longitude: 080° 59' 19.96" W
Elevation: 18 feet - 5 meters
Operating hours: Remarks
Operating agency: Military-civil joint use airport
Timezone: UTC-5
Fuel: Unknown fuel type or whether there is any fuel.

Runway information:
08/26 - 3641 x 131 feet< - >1110 x 40 meters
13/31 - 7995 x 98 feet< - >2437 x 30 meters

Recent METARs:
SESA 190300Z 23008KT 9999 SCT020 BKN070 23/20 Q1013

Airport on the map: